sensor_id;sensor_type;location;lat;lon;timestamp;temperature;humidity
40636;DHT22;26642;55.766;37.828;2023-07-22T00:00:02;22.20;64.10
40636;DHT22;26642;55.766;37.828;2023-07-22T00:02:31;22.20;65.20
40636;DHT22;26642;55.766;37.828;2023-07-22T00:04:57;22.20;64.60
40636;DHT22;26642;55.766;37.828;2023-07-22T00:07:23;22.10;64.60
40636;DHT22;26642;55.766;37.828;2023-07-22T00:09:49;22.10;64.70
40636;DHT22;26642;55.766;37.828;2023-07-22T00:12:16;22.10;64.40
40636;DHT22;26642;55.766;37.828;2023-07-22T00:14:41;22.10;64.50
40636;DHT22;26642;55.766;37.828;2023-07-22T00:17:08;22.10;64.90
40636;DHT22;26642;55.766;37.828;2023-07-22T00:19:34;22.00;64.70
40636;DHT22;26642;55.766;37.828;2023-07-22T00:22:00;22.00;64.50
40636;DHT22;26642;55.766;37.828;2023-07-22T00:24:26;21.90;64.60
40636;DHT22;26642;55.766;37.828;2023-07-22T00:26:52;21.90;64.80
40636;DHT22;26642;55.766;37.828;2023-07-22T00:29:18;21.90;64.60
40636;DHT22;26642;55.766;37.828;2023-07-22T00:31:44;21.90;64.50
40636;DHT22;26642;55.766;37.828;2023-07-22T00:34:10;21.90;64.80
40636;DHT22;26642;55.766;37.828;2023-07-22T00:36:36;21.90;64.80
40636;DHT22;26642;55.766;37.828;2023-07-22T00:39:03;21.90;64.90
40636;DHT22;26642;55.766;37.828;2023-07-22T00:41:31;21.90;64.70
40636;DHT22;26642;55.766;37.828;2023-07-22T00:43:57;21.80;64.70
40636;DHT22;26642;55.766;37.828;2023-07-22T00:46:23;21.90;64.60
40636;DHT22;26642;55.766;37.828;2023-07-22T00:48:50;21.90;64.60
40636;DHT22;26642;55.766;37.828;2023-07-22T00:51:17;21.80;64.40
40636;DHT22;26642;55.766;37.828;2023-07-22T00:53:43;21.80;64.90
40636;DHT22;26642;55.766;37.828;2023-07-22T00:56:09;21.80;64.70
40636;DHT22;26642;55.766;37.828;2023-07-22T00:58:35;21.80;65.10
40636;DHT22;26642;55.766;37.828;2023-07-22T01:01:01;21.90;64.90
40636;DHT22;26642;55.766;37.828;2023-07-22T01:03:27;21.80;64.60
40636;DHT22;26642;55.766;37.828;2023-07-22T01:05:53;21.80;64.80
40636;DHT22;26642;55.766;37.828;2023-07-22T01:08:20;21.80;64.90
40636;DHT22;26642;55.766;37.828;2023-07-22T01:10:46;21.80;64.60
40636;DHT22;26642;55.766;37.828;2023-07-22T01:13:14;21.80;64.30
40636;DHT22;26642;55.766;37.828;2023-07-22T01:15:40;21.80;64.10
40636;DHT22;26642;55.766;37.828;2023-07-22T01:18:07;21.80;64.10
40636;DHT22;26642;55.766;37.828;2023-07-22T01:20:33;21.80;64.30
40636;DHT22;26642;55.766;37.828;2023-07-22T01:23:01;21.70;64.10
40636;DHT22;26642;55.766;37.828;2023-07-22T01:25:27;21.80;64.30
40636;DHT22;26642;55.766;37.828;2023-07-22T01:27:53;21.70;64.30
40636;DHT22;26642;55.766;37.828;2023-07-22T01:30:19;21.70;64.40
40636;DHT22;26642;55.766;37.828;2023-07-22T01:32:46;21.70;64.50
40636;DHT22;26642;55.766;37.828;2023-07-22T01:35:12;21.70;64.70
40636;DHT22;26642;55.766;37.828;2023-07-22T01:37:39;21.70;64.70
40636;DHT22;26642;55.766;37.828;2023-07-22T01:40:05;21.70;64.70
40636;DHT22;26642;55.766;37.828;2023-07-22T01:42:41;21.70;64.80
40636;DHT22;26642;55.766;37.828;2023-07-22T01:45:09;21.70;64.80
40636;DHT22;26642;55.766;37.828;2023-07-22T01:47:35;21.70;64.80
40636;DHT22;26642;55.766;37.828;2023-07-22T01:50:05;21.70;64.90
40636;DHT22;26642;55.766;37.828;2023-07-22T01:52:32;21.70;64.90
40636;DHT22;26642;55.766;37.828;2023-07-22T01:54:58;21.70;65.00
40636;DHT22;26642;55.766;37.828;2023-07-22T01:57:24;21.70;64.90
40636;DHT22;26642;55.766;37.828;2023-07-22T01:59:50;21.70;64.90
40636;DHT22;26642;55.766;37.828;2023-07-22T02:02:16;21.70;64.90
40636;DHT22;26642;55.766;37.828;2023-07-22T02:04:42;21.70;65.00
40636;DHT22;26642;55.766;37.828;2023-07-22T02:07:08;21.70;64.90
40636;DHT22;26642;55.766;37.828;2023-07-22T02:09:34;21.60;64.70
40636;DHT22;26642;55.766;37.828;2023-07-22T02:12:01;21.70;65.00
40636;DHT22;26642;55.766;37.828;2023-07-22T02:14:27;21.70;65.00
40636;DHT22;26642;55.766;37.828;2023-07-22T02:16:53;21.70;65.80
40636;DHT22;26642;55.766;37.828;2023-07-22T02:19:19;21.70;65.20
40636;DHT22;26642;55.766;37.828;2023-07-22T02:21:45;21.70;65.10
40636;DHT22;26642;55.766;37.828;2023-07-22T02:24:11;21.70;65.20
40636;DHT22;26642;55.766;37.828;2023-07-22T02:26:37;21.60;65.00
40636;DHT22;26642;55.766;37.828;2023-07-22T02:29:02;21.70;65.30
40636;DHT22;26642;55.766;37.828;2023-07-22T02:31:28;21.80;65.00
40636;DHT22;26642;55.766;37.828;2023-07-22T02:33:54;21.80;65.00
40636;DHT22;26642;55.766;37.828;2023-07-22T02:36:21;21.80;65.00
40636;DHT22;26642;55.766;37.828;2023-07-22T02:38:46;21.90;65.10
40636;DHT22;26642;55.766;37.828;2023-07-22T02:41:12;22.00;65.10
40636;DHT22;26642;55.766;37.828;2023-07-22T02:43:38;22.10;65.10
40636;DHT22;26642;55.766;37.828;2023-07-22T02:46:06;22.10;65.10
40636;DHT22;26642;55.766;37.828;2023-07-22T02:48:34;22.20;64.80
40636;DHT22;26642;55.766;37.828;2023-07-22T02:51:04;22.30;64.90
40636;DHT22;26642;55.766;37.828;2023-07-22T02:53:31;22.40;64.70
40636;DHT22;26642;55.766;37.828;2023-07-22T02:55:58;22.50;64.50
40636;DHT22;26642;55.766;37.828;2023-07-22T02:58:24;22.50;64.50
40636;DHT22;26642;55.766;37.828;2023-07-22T03:00:50;22.60;64.20
40636;DHT22;26642;55.766;37.828;2023-07-22T03:03:16;22.70;64.20
40636;DHT22;26642;55.766;37.828;2023-07-22T03:05:44;22.80;64.00
40636;DHT22;26642;55.766;37.828;2023-07-22T03:08:11;22.80;63.80
40636;DHT22;26642;55.766;37.828;2023-07-22T03:10:36;22.80;63.40
40636;DHT22;26642;55.766;37.828;2023-07-22T03:13:02;22.80;63.60
40636;DHT22;26642;55.766;37.828;2023-07-22T03:15:29;22.80;63.50
40636;DHT22;26642;55.766;37.828;2023-07-22T03:17:55;22.70;63.20
40636;DHT22;26642;55.766;37.828;2023-07-22T03:20:22;22.80;63.30
40636;DHT22;26642;55.766;37.828;2023-07-22T03:22:50;22.80;63.30
40636;DHT22;26642;55.766;37.828;2023-07-22T03:25:16;22.70;62.90
40636;DHT22;26642;55.766;37.828;2023-07-22T03:27:43;22.80;63.00
40636;DHT22;26642;55.766;37.828;2023-07-22T03:30:12;22.70;63.00
40636;DHT22;26642;55.766;37.828;2023-07-22T03:32:42;22.70;62.90
40636;DHT22;26642;55.766;37.828;2023-07-22T03:35:09;22.70;63.00
40636;DHT22;26642;55.766;37.828;2023-07-22T03:37:36;22.70;63.20
40636;DHT22;26642;55.766;37.828;2023-07-22T03:40:06;22.70;63.30
40636;DHT22;26642;55.766;37.828;2023-07-22T03:42:50;22.70;62.90
40636;DHT22;26642;55.766;37.828;2023-07-22T03:45:20;22.80;63.20
40636;DHT22;26642;55.766;37.828;2023-07-22T03:47:49;22.90;63.20
40636;DHT22;26642;55.766;37.828;2023-07-22T03:50:15;23.00;63.20
40636;DHT22;26642;55.766;37.828;2023-07-22T03:52:41;23.10;62.90
40636;DHT22;26642;55.766;37.828;2023-07-22T03:55:07;23.30;62.70
40636;DHT22;26642;55.766;37.828;2023-07-22T03:57:34;23.40;62.70
40636;DHT22;26642;55.766;37.828;2023-07-22T04:00:00;23.50;62.60
40636;DHT22;26642;55.766;37.828;2023-07-22T04:02:26;23.60;62.40
40636;DHT22;26642;55.766;37.828;2023-07-22T04:04:54;23.70;62.20
40636;DHT22;26642;55.766;37.828;2023-07-22T04:07:21;23.80;62.10
40636;DHT22;26642;55.766;37.828;2023-07-22T04:09:47;23.90;61.80
40636;DHT22;26642;55.766;37.828;2023-07-22T04:12:13;24.00;61.00
40636;DHT22;26642;55.766;37.828;2023-07-22T04:14:39;24.10;61.20
40636;DHT22;26642;55.766;37.828;2023-07-22T04:17:06;24.20;60.70
40636;DHT22;26642;55.766;37.828;2023-07-22T04:19:32;24.30;60.60
40636;DHT22;26642;55.766;37.828;2023-07-22T04:21:58;24.40;60.20
40636;DHT22;26642;55.766;37.828;2023-07-22T04:24:26;24.60;59.90
40636;DHT22;26642;55.766;37.828;2023-07-22T04:26:51;24.60;59.50
40636;DHT22;26642;55.766;37.828;2023-07-22T04:29:18;24.70;59.50
40636;DHT22;26642;55.766;37.828;2023-07-22T04:31:45;24.80;59.60
40636;DHT22;26642;55.766;37.828;2023-07-22T04:34:11;24.90;59.10
40636;DHT22;26642;55.766;37.828;2023-07-22T04:36:38;25.00;59.10
40636;DHT22;26642;55.766;37.828;2023-07-22T04:39:04;25.10;58.90
40636;DHT22;26642;55.766;37.828;2023-07-22T04:41:33;25.20;58.80
40636;DHT22;26642;55.766;37.828;2023-07-22T04:43:59;25.20;58.80
40636;DHT22;26642;55.766;37.828;2023-07-22T04:46:25;25.30;58.40
40636;DHT22;26642;55.766;37.828;2023-07-22T04:48:56;25.30;58.40
40636;DHT22;26642;55.766;37.828;2023-07-22T04:51:23;25.40;58.20
40636;DHT22;26642;55.766;37.828;2023-07-22T04:53:49;25.50;57.90
40636;DHT22;26642;55.766;37.828;2023-07-22T04:56:15;25.50;57.90
40636;DHT22;26642;55.766;37.828;2023-07-22T04:58:42;25.60;57.80
40636;DHT22;26642;55.766;37.828;2023-07-22T05:01:09;25.60;57.60
40636;DHT22;26642;55.766;37.828;2023-07-22T05:03:35;25.70;57.40
40636;DHT22;26642;55.766;37.828;2023-07-22T05:06:01;25.80;57.50
40636;DHT22;26642;55.766;37.828;2023-07-22T05:08:27;25.80;57.60
40636;DHT22;26642;55.766;37.828;2023-07-22T05:10:53;25.80;57.50
40636;DHT22;26642;55.766;37.828;2023-07-22T05:13:19;25.90;57.30
40636;DHT22;26642;55.766;37.828;2023-07-22T05:15:45;25.90;57.10
40636;DHT22;26642;55.766;37.828;2023-07-22T05:18:11;26.00;57.20
40636;DHT22;26642;55.766;37.828;2023-07-22T05:20:38;26.00;57.10
40636;DHT22;26642;55.766;37.828;2023-07-22T05:23:05;26.10;57.00
40636;DHT22;26642;55.766;37.828;2023-07-22T05:25:31;26.10;57.00
40636;DHT22;26642;55.766;37.828;2023-07-22T05:27:56;26.20;56.80
40636;DHT22;26642;55.766;37.828;2023-07-22T05:30:22;26.20;56.80
40636;DHT22;26642;55.766;37.828;2023-07-22T05:32:52;26.30;56.80
40636;DHT22;26642;55.766;37.828;2023-07-22T05:35:19;26.30;56.90
40636;DHT22;26642;55.766;37.828;2023-07-22T05:37:45;26.40;56.10
40636;DHT22;26642;55.766;37.828;2023-07-22T05:40:11;26.40;56.30
40636;DHT22;26642;55.766;37.828;2023-07-22T05:42:37;26.40;56.10
40636;DHT22;26642;55.766;37.828;2023-07-22T05:45:03;26.50;56.00
40636;DHT22;26642;55.766;37.828;2023-07-22T05:47:30;26.60;55.70
40636;DHT22;26642;55.766;37.828;2023-07-22T05:49:56;26.60;55.10
40636;DHT22;26642;55.766;37.828;2023-07-22T05:52:22;26.60;55.10
40636;DHT22;26642;55.766;37.828;2023-07-22T05:54:48;26.70;55.60
40636;DHT22;26642;55.766;37.828;2023-07-22T05:57:15;26.70;54.90
40636;DHT22;26642;55.766;37.828;2023-07-22T05:59:41;26.70;55.30
40636;DHT22;26642;55.766;37.828;2023-07-22T06:02:08;26.80;55.20
40636;DHT22;26642;55.766;37.828;2023-07-22T06:04:34;26.90;55.30
40636;DHT22;26642;55.766;37.828;2023-07-22T06:07:00;26.90;54.60
40636;DHT22;26642;55.766;37.828;2023-07-22T06:09:26;26.90;54.90
40636;DHT22;26642;55.766;37.828;2023-07-22T06:11:52;27.00;54.80
40636;DHT22;26642;55.766;37.828;2023-07-22T06:14:18;27.00;54.80
40636;DHT22;26642;55.766;37.828;2023-07-22T06:16:44;27.00;54.80
40636;DHT22;26642;55.766;37.828;2023-07-22T06:19:09;27.10;54.60
40636;DHT22;26642;55.766;37.828;2023-07-22T06:21:35;27.10;54.40
40636;DHT22;26642;55.766;37.828;2023-07-22T06:24:01;27.10;54.60
40636;DHT22;26642;55.766;37.828;2023-07-22T06:26:27;27.10;54.70
40636;DHT22;26642;55.766;37.828;2023-07-22T06:28:53;27.20;54.60
40636;DHT22;26642;55.766;37.828;2023-07-22T06:31:20;27.20;54.40
40636;DHT22;26642;55.766;37.828;2023-07-22T06:33:47;27.20;54.20
40636;DHT22;26642;55.766;37.828;2023-07-22T06:36:13;27.20;53.90
40636;DHT22;26642;55.766;37.828;2023-07-22T06:38:39;27.20;53.80
40636;DHT22;26642;55.766;37.828;2023-07-22T06:41:05;27.20;53.80
40636;DHT22;26642;55.766;37.828;2023-07-22T06:43:31;27.20;53.70
40636;DHT22;26642;55.766;37.828;2023-07-22T06:45:57;27.20;53.50
40636;DHT22;26642;55.766;37.828;2023-07-22T06:48:23;27.20;53.70
40636;DHT22;26642;55.766;37.828;2023-07-22T06:50:49;27.30;53.80
40636;DHT22;26642;55.766;37.828;2023-07-22T06:53:15;27.30;53.70
40636;DHT22;26642;55.766;37.828;2023-07-22T06:55:51;27.40;53.90
40636;DHT22;26642;55.766;37.828;2023-07-22T06:58:21;27.40;53.70
40636;DHT22;26642;55.766;37.828;2023-07-22T07:00:53;27.40;53.40
40636;DHT22;26642;55.766;37.828;2023-07-22T07:03:21;27.40;53.50
40636;DHT22;26642;55.766;37.828;2023-07-22T07:05:57;27.40;53.10
40636;DHT22;26642;55.766;37.828;2023-07-22T07:08:23;27.40;53.10
40636;DHT22;26642;55.766;37.828;2023-07-22T07:10:50;27.30;53.20
40636;DHT22;26642;55.766;37.828;2023-07-22T07:13:16;27.40;53.30
40636;DHT22;26642;55.766;37.828;2023-07-22T07:15:46;27.40;52.70
40636;DHT22;26642;55.766;37.828;2023-07-22T07:18:14;27.30;53.10
40636;DHT22;26642;55.766;37.828;2023-07-22T07:20:40;27.30;52.90
40636;DHT22;26642;55.766;37.828;2023-07-22T07:23:06;27.30;53.20
40636;DHT22;26642;55.766;37.828;2023-07-22T07:25:31;27.30;53.10
40636;DHT22;26642;55.766;37.828;2023-07-22T07:27:57;27.30;53.00
40636;DHT22;26642;55.766;37.828;2023-07-22T07:30:23;27.30;52.90
40636;DHT22;26642;55.766;37.828;2023-07-22T07:32:49;27.30;53.10
40636;DHT22;26642;55.766;37.828;2023-07-22T07:35:15;27.40;53.30
40636;DHT22;26642;55.766;37.828;2023-07-22T07:37:41;27.40;53.10
40636;DHT22;26642;55.766;37.828;2023-07-22T07:40:08;27.30;53.20
40636;DHT22;26642;55.766;37.828;2023-07-22T07:42:34;27.40;53.40
40636;DHT22;26642;55.766;37.828;2023-07-22T07:45:00;27.40;53.20
40636;DHT22;26642;55.766;37.828;2023-07-22T07:47:26;27.40;52.90
40636;DHT22;26642;55.766;37.828;2023-07-22T07:49:52;27.30;53.10
40636;DHT22;26642;55.766;37.828;2023-07-22T07:52:17;27.30;53.00
40636;DHT22;26642;55.766;37.828;2023-07-22T07:54:43;27.30;53.30
40636;DHT22;26642;55.766;37.828;2023-07-22T07:57:09;27.30;53.10
40636;DHT22;26642;55.766;37.828;2023-07-22T07:59:35;27.30;53.20
40636;DHT22;26642;55.766;37.828;2023-07-22T08:02:01;27.30;53.00
40636;DHT22;26642;55.766;37.828;2023-07-22T08:04:28;27.30;53.10
40636;DHT22;26642;55.766;37.828;2023-07-22T08:06:54;27.20;53.10
40636;DHT22;26642;55.766;37.828;2023-07-22T08:09:20;27.10;53.00
40636;DHT22;26642;55.766;37.828;2023-07-22T08:11:46;27.10;52.90
40636;DHT22;26642;55.766;37.828;2023-07-22T08:14:12;27.10;53.40
40636;DHT22;26642;55.766;37.828;2023-07-22T08:16:39;27.10;52.40
40636;DHT22;26642;55.766;37.828;2023-07-22T08:19:05;27.00;51.90
40636;DHT22;26642;55.766;37.828;2023-07-22T08:21:31;27.00;52.30
40636;DHT22;26642;55.766;37.828;2023-07-22T08:23:57;27.00;53.00
40636;DHT22;26642;55.766;37.828;2023-07-22T08:26:23;27.00;53.80
40636;DHT22;26642;55.766;37.828;2023-07-22T08:28:49;27.00;53.40
40636;DHT22;26642;55.766;37.828;2023-07-22T08:31:15;27.00;52.60
40636;DHT22;26642;55.766;37.828;2023-07-22T08:33:41;27.00;53.10
40636;DHT22;26642;55.766;37.828;2023-07-22T08:36:07;27.00;52.40
40636;DHT22;26642;55.766;37.828;2023-07-22T08:38:33;27.00;53.30
40636;DHT22;26642;55.766;37.828;2023-07-22T08:40:59;27.00;53.80
40636;DHT22;26642;55.766;37.828;2023-07-22T08:43:28;26.90;51.70
40636;DHT22;26642;55.766;37.828;2023-07-22T08:45:54;26.90;52.40
40636;DHT22;26642;55.766;37.828;2023-07-22T08:48:22;26.90;53.20
40636;DHT22;26642;55.766;37.828;2023-07-22T08:51:18;26.90;53.40
40636;DHT22;26642;55.766;37.828;2023-07-22T08:53:47;26.90;52.30
40636;DHT22;26642;55.766;37.828;2023-07-22T08:56:14;26.80;52.80
40636;DHT22;26642;55.766;37.828;2023-07-22T08:58:41;26.80;51.90
40636;DHT22;26642;55.766;37.828;2023-07-22T09:01:08;26.80;53.50
40636;DHT22;26642;55.766;37.828;2023-07-22T09:03:34;26.70;52.60
40636;DHT22;26642;55.766;37.828;2023-07-22T09:06:00;26.70;52.40
40636;DHT22;26642;55.766;37.828;2023-07-22T09:08:27;26.70;53.40
40636;DHT22;26642;55.766;37.828;2023-07-22T09:10:53;26.70;52.80
40636;DHT22;26642;55.766;37.828;2023-07-22T09:13:20;26.70;52.80
40636;DHT22;26642;55.766;37.828;2023-07-22T09:15:47;26.70;53.10
40636;DHT22;26642;55.766;37.828;2023-07-22T09:18:16;26.70;53.20
40636;DHT22;26642;55.766;37.828;2023-07-22T09:20:42;26.70;52.60
40636;DHT22;26642;55.766;37.828;2023-07-22T09:23:08;26.70;52.80
40636;DHT22;26642;55.766;37.828;2023-07-22T09:25:34;26.70;53.00
40636;DHT22;26642;55.766;37.828;2023-07-22T09:28:00;26.70;52.70
40636;DHT22;26642;55.766;37.828;2023-07-22T09:30:36;26.60;52.20
40636;DHT22;26642;55.766;37.828;2023-07-22T09:33:05;26.50;52.00
40636;DHT22;26642;55.766;37.828;2023-07-22T09:35:44;26.60;52.50
40636;DHT22;26642;55.766;37.828;2023-07-22T09:38:10;26.60;52.20
40636;DHT22;26642;55.766;37.828;2023-07-22T09:40:40;26.60;52.50
40636;DHT22;26642;55.766;37.828;2023-07-22T09:43:10;26.60;51.80
40636;DHT22;26642;55.766;37.828;2023-07-22T09:45:36;26.60;51.80
40636;DHT22;26642;55.766;37.828;2023-07-22T09:48:05;26.50;51.50
40636;DHT22;26642;55.766;37.828;2023-07-22T09:50:31;26.50;51.60
40636;DHT22;26642;55.766;37.828;2023-07-22T09:52:59;26.50;51.30
40636;DHT22;26642;55.766;37.828;2023-07-22T09:55:27;26.50;51.10
40636;DHT22;26642;55.766;37.828;2023-07-22T10:00:45;26.50;51.40
40636;DHT22;26642;55.766;37.828;2023-07-22T10:03:14;26.50;50.80
40636;DHT22;26642;55.766;37.828;2023-07-22T10:05:42;26.40;51.10
40636;DHT22;26642;55.766;37.828;2023-07-22T10:08:10;26.40;50.10
40636;DHT22;26642;55.766;37.828;2023-07-22T10:10:38;26.40;50.10
40636;DHT22;26642;55.766;37.828;2023-07-22T10:13:05;26.40;49.90
40636;DHT22;26642;55.766;37.828;2023-07-22T10:15:33;26.40;50.10
40636;DHT22;26642;55.766;37.828;2023-07-22T10:18:00;26.40;50.50
40636;DHT22;26642;55.766;37.828;2023-07-22T10:20:28;26.40;50.50
40636;DHT22;26642;55.766;37.828;2023-07-22T10:22:55;26.30;50.30
40636;DHT22;26642;55.766;37.828;2023-07-22T10:25:22;26.40;50.80
40636;DHT22;26642;55.766;37.828;2023-07-22T10:27:49;26.40;51.70
40636;DHT22;26642;55.766;37.828;2023-07-22T10:30:17;26.40;51.60
40636;DHT22;26642;55.766;37.828;2023-07-22T10:32:45;26.30;51.40
40636;DHT22;26642;55.766;37.828;2023-07-22T10:35:37;26.30;51.30
40636;DHT22;26642;55.766;37.828;2023-07-22T10:40:54;26.20;50.90
40636;DHT22;26642;55.766;37.828;2023-07-22T10:43:30;26.20;50.70
40636;DHT22;26642;55.766;37.828;2023-07-22T10:45:58;26.20;50.80
40636;DHT22;26642;55.766;37.828;2023-07-22T10:48:35;26.20;50.90
40636;DHT22;26642;55.766;37.828;2023-07-22T10:51:14;26.20;50.70
40636;DHT22;26642;55.766;37.828;2023-07-22T10:53:43;26.10;50.40
40636;DHT22;26642;55.766;37.828;2023-07-22T11:01:33;26.10;51.00
40636;DHT22;26642;55.766;37.828;2023-07-22T11:11:59;26.10;50.70
40636;DHT22;26642;55.766;37.828;2023-07-22T11:14:30;26.00;50.80
40636;DHT22;26642;55.766;37.828;2023-07-22T11:16:58;26.00;51.20
40636;DHT22;26642;55.766;37.828;2023-07-22T11:19:26;26.00;50.90
40636;DHT22;26642;55.766;37.828;2023-07-22T11:21:53;26.00;51.10
40636;DHT22;26642;55.766;37.828;2023-07-22T11:24:22;26.00;51.40
40636;DHT22;26642;55.766;37.828;2023-07-22T11:26:50;26.00;51.70
40636;DHT22;26642;55.766;37.828;2023-07-22T11:29:16;26.10;52.40
40636;DHT22;26642;55.766;37.828;2023-07-22T11:31:44;26.00;51.70
40636;DHT22;26642;55.766;37.828;2023-07-22T11:34:22;26.10;52.30
40636;DHT22;26642;55.766;37.828;2023-07-22T11:36:50;26.00;51.70
40636;DHT22;26642;55.766;37.828;2023-07-22T11:39:18;26.10;51.80
40636;DHT22;26642;55.766;37.828;2023-07-22T11:41:45;26.00;52.00
40636;DHT22;26642;55.766;37.828;2023-07-22T11:44:12;26.00;51.50
40636;DHT22;26642;55.766;37.828;2023-07-22T11:46:57;26.00;51.90
40636;DHT22;26642;55.766;37.828;2023-07-22T11:54:24;26.00;51.70
40636;DHT22;26642;55.766;37.828;2023-07-22T11:56:50;26.00;50.70
40636;DHT22;26642;55.766;37.828;2023-07-22T11:59:16;25.90;50.70
40636;DHT22;26642;55.766;37.828;2023-07-22T12:01:46;25.90;50.70
40636;DHT22;26642;55.766;37.828;2023-07-22T12:04:15;25.90;50.40
40636;DHT22;26642;55.766;37.828;2023-07-22T12:06:41;25.80;50.30
40636;DHT22;26642;55.766;37.828;2023-07-22T12:09:08;25.80;50.70
40636;DHT22;26642;55.766;37.828;2023-07-22T12:11:36;25.80;50.50
40636;DHT22;26642;55.766;37.828;2023-07-22T12:16:35;25.80;50.70
40636;DHT22;26642;55.766;37.828;2023-07-22T12:19:03;25.80;50.70
40636;DHT22;26642;55.766;37.828;2023-07-22T12:21:29;25.80;50.60
40636;DHT22;26642;55.766;37.828;2023-07-22T12:23:55;25.80;50.40
40636;DHT22;26642;55.766;37.828;2023-07-22T12:26:21;25.70;49.80
40636;DHT22;26642;55.766;37.828;2023-07-22T12:28:47;25.80;49.60
40636;DHT22;26642;55.766;37.828;2023-07-22T12:31:13;25.70;49.60
40636;DHT22;26642;55.766;37.828;2023-07-22T12:33:39;25.70;49.50
40636;DHT22;26642;55.766;37.828;2023-07-22T12:36:05;25.70;49.70
40636;DHT22;26642;55.766;37.828;2023-07-22T12:38:31;25.70;50.20
40636;DHT22;26642;55.766;37.828;2023-07-22T12:40:57;25.70;50.50
40636;DHT22;26642;55.766;37.828;2023-07-22T12:43:23;25.70;50.00
40636;DHT22;26642;55.766;37.828;2023-07-22T12:45:49;25.80;50.40
40636;DHT22;26642;55.766;37.828;2023-07-22T12:48:16;25.80;51.20
40636;DHT22;26642;55.766;37.828;2023-07-22T12:50:43;25.80;51.30
40636;DHT22;26642;55.766;37.828;2023-07-22T12:53:09;25.80;51.10
40636;DHT22;26642;55.766;37.828;2023-07-22T12:55:35;25.80;50.90
40636;DHT22;26642;55.766;37.828;2023-07-22T12:58:01;25.80;51.00
40636;DHT22;26642;55.766;37.828;2023-07-22T13:00:28;25.80;51.30
40636;DHT22;26642;55.766;37.828;2023-07-22T13:02:54;25.80;50.50
40636;DHT22;26642;55.766;37.828;2023-07-22T13:05:22;25.80;50.50
40636;DHT22;26642;55.766;37.828;2023-07-22T13:07:48;25.80;50.60
40636;DHT22;26642;55.766;37.828;2023-07-22T13:10:20;25.80;50.40
40636;DHT22;26642;55.766;37.828;2023-07-22T13:12:51;25.70;49.80
40636;DHT22;26642;55.766;37.828;2023-07-22T13:15:17;25.70;50.30
40636;DHT22;26642;55.766;37.828;2023-07-22T13:17:43;25.70;50.50
40636;DHT22;26642;55.766;37.828;2023-07-22T13:20:09;25.70;50.10
40636;DHT22;26642;55.766;37.828;2023-07-22T13:22:38;25.70;50.00
40636;DHT22;26642;55.766;37.828;2023-07-22T13:25:04;25.70;50.20
40636;DHT22;26642;55.766;37.828;2023-07-22T13:27:30;25.70;50.70
40636;DHT22;26642;55.766;37.828;2023-07-22T13:29:56;25.70;51.10
40636;DHT22;26642;55.766;37.828;2023-07-22T13:32:23;25.70;51.50
40636;DHT22;26642;55.766;37.828;2023-07-22T13:34:49;25.80;52.40
40636;DHT22;26642;55.766;37.828;2023-07-22T13:37:15;25.70;51.70
40636;DHT22;26642;55.766;37.828;2023-07-22T13:39:41;25.70;51.70
40636;DHT22;26642;55.766;37.828;2023-07-22T13:42:08;25.80;52.00
40636;DHT22;26642;55.766;37.828;2023-07-22T13:44:34;25.70;51.60
40636;DHT22;26642;55.766;37.828;2023-07-22T13:47:00;25.80;51.70
40636;DHT22;26642;55.766;37.828;2023-07-22T13:49:26;25.80;51.90
40636;DHT22;26642;55.766;37.828;2023-07-22T13:51:52;25.80;52.40
40636;DHT22;26642;55.766;37.828;2023-07-22T13:54:18;25.80;52.00
40636;DHT22;26642;55.766;37.828;2023-07-22T13:56:45;25.70;51.60
40636;DHT22;26642;55.766;37.828;2023-07-22T13:59:13;25.70;51.50
40636;DHT22;26642;55.766;37.828;2023-07-22T14:01:39;25.70;51.50
40636;DHT22;26642;55.766;37.828;2023-07-22T14:04:05;25.70;50.80
40636;DHT22;26642;55.766;37.828;2023-07-22T14:06:31;25.60;51.10
40636;DHT22;26642;55.766;37.828;2023-07-22T14:08:58;25.70;51.30
40636;DHT22;26642;55.766;37.828;2023-07-22T14:11:24;25.60;51.10
40636;DHT22;26642;55.766;37.828;2023-07-22T14:13:51;25.60;50.70
40636;DHT22;26642;55.766;37.828;2023-07-22T14:16:19;25.60;51.30
40636;DHT22;26642;55.766;37.828;2023-07-22T14:18:45;25.60;51.30
40636;DHT22;26642;55.766;37.828;2023-07-22T14:21:11;25.60;51.50
40636;DHT22;26642;55.766;37.828;2023-07-22T14:23:37;25.60;51.60
40636;DHT22;26642;55.766;37.828;2023-07-22T14:26:03;25.60;51.30
40636;DHT22;26642;55.766;37.828;2023-07-22T14:28:29;25.60;51.30
40636;DHT22;26642;55.766;37.828;2023-07-22T14:30:55;25.60;51.30
40636;DHT22;26642;55.766;37.828;2023-07-22T14:33:21;25.60;51.10
40636;DHT22;26642;55.766;37.828;2023-07-22T14:35:47;25.50;50.90
40636;DHT22;26642;55.766;37.828;2023-07-22T14:38:13;25.50;50.60
40636;DHT22;26642;55.766;37.828;2023-07-22T14:40:39;25.50;51.00
40636;DHT22;26642;55.766;37.828;2023-07-22T14:43:05;25.50;51.10
40636;DHT22;26642;55.766;37.828;2023-07-22T14:45:31;25.50;51.20
40636;DHT22;26642;55.766;37.828;2023-07-22T14:47:56;25.50;51.40
40636;DHT22;26642;55.766;37.828;2023-07-22T14:50:22;25.50;51.20
40636;DHT22;26642;55.766;37.828;2023-07-22T14:52:48;25.40;51.20
40636;DHT22;26642;55.766;37.828;2023-07-22T14:55:14;25.50;51.20
40636;DHT22;26642;55.766;37.828;2023-07-22T14:57:40;25.40;51.20
40636;DHT22;26642;55.766;37.828;2023-07-22T15:00:06;25.50;51.30
40636;DHT22;26642;55.766;37.828;2023-07-22T15:02:33;25.40;51.30
40636;DHT22;26642;55.766;37.828;2023-07-22T15:04:59;25.40;51.00
40636;DHT22;26642;55.766;37.828;2023-07-22T15:07:25;25.40;50.90
40636;DHT22;26642;55.766;37.828;2023-07-22T15:09:54;25.40;51.30
40636;DHT22;26642;55.766;37.828;2023-07-22T15:12:21;25.40;51.50
40636;DHT22;26642;55.766;37.828;2023-07-22T15:14:47;25.40;51.40
40636;DHT22;26642;55.766;37.828;2023-07-22T15:17:13;25.40;51.70
40636;DHT22;26642;55.766;37.828;2023-07-22T15:19:39;25.40;51.80
40636;DHT22;26642;55.766;37.828;2023-07-22T15:22:05;25.40;52.40
40636;DHT22;26642;55.766;37.828;2023-07-22T15:24:31;25.40;51.80
40636;DHT22;26642;55.766;37.828;2023-07-22T15:26:57;25.40;51.90
40636;DHT22;26642;55.766;37.828;2023-07-22T15:29:23;25.40;51.90
40636;DHT22;26642;55.766;37.828;2023-07-22T15:31:49;25.40;51.70
40636;DHT22;26642;55.766;37.828;2023-07-22T15:34:14;25.40;51.60
40636;DHT22;26642;55.766;37.828;2023-07-22T15:36:40;25.40;51.90
40636;DHT22;26642;55.766;37.828;2023-07-22T15:39:06;25.40;51.90